KCUH

Cushing Municipal Airport

Cushing, Oklahoma, USA
METAR KCUH 150055Z AUTO 18004KT 10SM -VCTSRA SCT032 SCT070 SCT095 25/23 A2987 RMK AO2 LTG DSNT N AND SW T02450226
Observed Flight Rules
Aug-15 @ 00:55 UTC (12 minutes ago) Visual Flight Rules
Wind Visibility Clouds Conditions
180° at 4 knots 10 miles
  • Scattered at 3,200' AGL
  • Scattered at 7,000' AGL
  • Scattered at 9,500' AGL
  • Area Thunderstorm
  • Light Rain
Temperatures Readings
Current 25°C / 77°F
Dewpoint 23°C / 73°F
Humidity 89%
Altimeter 29.87" Hg
Pressure 1012 hPa
Elevation 279
METAR KCUH 150055Z AUTO 18004KT 10SM -VCTSRA SCT032 SCT070 SCT095 25/23 A2987 RMK AO2 LTG DSNT N AND SW T02450226
Observed Flight Rules
Aug-15 @ 00:55 UTC
(12 minutes ago)
VFR
Wind Visibility
180° at 4 knots 10 miles
Clouds
  • Scattered at 3,200' AGL
  • Scattered at 7,000' AGL
  • Scattered at 9,500' AGL
Conditions
  • Area Thunderstorm
  • Light Rain
Temperature Dewpoint
25°C / 77°F 23°C / 73°F
Humidity Altimeter Pressure
89% 29.87" Hg 1012 hPa